メインページ
METAR-TAF:

METAR-TAF

空港 :

クウェート, クウェート

クウェート国際空港

緯度: 29-13N, 経度: 047-59E, 海抜: 55m

現時点の気象観測

当レポートは47分前の09:00(UTC)に作成
の風 11kt
気温 20°C
湿度 73%
気圧 1011 hPa
視程: 5000m
高度4000ftの雲は散在している
高度8000ftの千切れ雲あり

METAR: OKBK 250900Z 36011KT 5000 SCT040 BKN080 20/15 Q1011 NOSIG

時間: 12:47 (09:47 UTC)

予報

当レポートは5時間2分前の04:45(UTC)に作成
予報は25日の 06時(UTC)から 26日の 12時(UTC)まで有効
の風 10kt、最大20ktの突風を伴う
視程: 6000m
高度4000ftの雲はほとんどない
高度8000ftの雲は散在している
25日の 06時(UTC)から 25日の 14時(UTC)まで一時的に
視程: 3000m
高度3000ftの雲はほとんどない, 積乱雲.

TAF: OKBK 250445Z 2506/2612 36010G20KT 6000 FEW040 SCT080 TEMPO 2506/2514 3000 TSRA/BLDU FEW030CB

4,000以上の空港の気象観測と天気予報(METAR報とTAF報)

利用可能な観測所は地図上に黄色い丸と赤い丸で示す。

丸の上にカーソルを重ねると観測所名を参照できる。

次にクリックすると気象観測と天気予報を参照できる。

マップの切り替え:黒色「×」印の緑ボタンをクリックして拡大、「-」印の緑ボタンをクリックして縮小、緑色の三角印をクリックして隣りの地図に切り替え


METAR-TAF: